Aérodrome :
LOGIN :

S'inscrire | Disclaimer

   EN    FR    IT 

 










Légende :    VFR   VFR Marginal   IFR   IFR Intensif   IFR Très Intensif
Visi : 
Plafond : 
>= 8 km
>= 3000ft
5 à 8 km
1000 à 3000 ft
1500m à 5 km
500 à 1000 ft
800 à 1500m
200 à 500 ft
< 800m
< 200 ft
Symboles :   Orages  Brouillard  Fortes neiges  Fortes précipitations  Vent > 20 kt
SIGMETs :   Divers  Orages  Givrage  Turbulence  Onde Orograph.  Cendres Volcan.







- Altitude de l'aérodrome : 1363 ft


ETIC - Grafenwohr Army Air Field

DERNIER METAR :
  • 240356Z AUTO 00000KT 9999 SCT160 09/09 A3002 RMK AO2 SLP161 T00940086 $

METARs EXPIRÉS :
  • 240256Z AUTO 00000KT 9999 CLR 09/08 A3002 RMK AO2 SLP161 T00900084 57008 $
  • 240156Z AUTO 00000KT 9999 FEW110 10/10 A3002 RMK AO2 SLP161 T01010095 $

TAF TAF ETIC
Valide du 23 à 22h jusqu'au 25 à 04h UTC


232201Z 2322/2504 17006KT 9999 FEW200 QNH2996INS
BECMG 2407/2408 22012G18KT 9999 VCTS BKN050CB QNH2997INS
BECMG 2414/2415 26009KT 9999 NSW SCT050 BKN200 QNH3000INS
BECMG 2419/2420 33006KT 9999 SCT100 QNH3003INS TX22/2413Z TN08/2403Z
Pas de NOTAMs connus pour ce terrain.



MET'MAP, la Météo Aéronautique d'un coup d'oeil ! - Copyright ORBIFLY Décembre 2007 - Disclaimer

ORBIFLY MET'MAP TEAM :

Programmation & Développement : Alexandra Zaïnal
Conception & Développement : Baudouin d'Aumeries
Co-Programmation & Développement : Marc-Olivier Méhu
Soutien technique & logistique : Manuel Goepfert

Contact : metmap@orbifly.com




SOURCES & CREDITS :

   NOAA